createdAt,value
2019-04-29T00:01:32.013Z,23.00
2019-04-29T00:04:02.400Z,23.00
2019-04-29T00:06:32.789Z,23.00
2019-04-29T00:09:07.650Z,23.00
2019-04-29T00:11:38.478Z,23.00
2019-04-29T00:14:10.132Z,23.00
2019-04-29T00:16:47.809Z,23.10
2019-04-29T00:19:22.649Z,23.10
2019-04-29T00:21:53.472Z,23.10
2019-04-29T00:24:23.873Z,23.10
2019-04-29T00:26:54.592Z,23.10
2019-04-29T00:29:25.017Z,23.10
2019-04-29T00:31:55.414Z,23.10
2019-04-29T00:34:25.802Z,23.10
2019-04-29T00:37:05.106Z,23.10
2019-04-29T00:39:53.827Z,23.10
2019-04-29T00:42:44.705Z,23.10
2019-04-29T00:45:16.635Z,23.10
2019-04-29T00:47:47.474Z,23.10
2019-04-29T00:50:18.245Z,23.10
2019-04-29T00:52:49.064Z,23.10
2019-04-29T00:55:27.233Z,23.10
2019-04-29T00:57:58.197Z,23.20
2019-04-29T01:00:33.119Z,23.10
2019-04-29T01:03:04.000Z,23.20
2019-04-29T01:05:34.406Z,23.20
2019-04-29T01:08:05.141Z,23.20
2019-04-29T01:10:35.558Z,23.20
2019-04-29T01:13:06.613Z,23.20
2019-04-29T01:15:37.349Z,23.20
2019-04-29T01:18:07.880Z,23.20
2019-04-29T01:20:38.508Z,23.20
2019-04-29T01:23:10.469Z,23.20
2019-04-29T01:25:42.083Z,23.20
2019-04-29T01:28:16.520Z,23.20
2019-04-29T01:30:59.132Z,23.20
2019-04-29T01:33:30.040Z,23.20
2019-04-29T01:36:07.361Z,23.20
2019-04-29T01:38:37.781Z,23.20
2019-04-29T01:41:18.511Z,23.30
2019-04-29T01:44:02.374Z,23.20
2019-04-29T01:46:32.991Z,23.20
2019-04-29T01:49:03.571Z,23.30
2019-04-29T01:51:33.986Z,23.20
2019-04-29T01:54:04.415Z,23.20
2019-04-29T01:56:35.233Z,23.20
2019-04-29T01:59:05.749Z,23.20
2019-04-29T02:01:36.140Z,23.20
2019-04-29T02:04:06.746Z,23.20
2019-04-29T02:06:37.159Z,23.20
2019-04-29T02:09:10.180Z,23.20
2019-04-29T02:11:41.255Z,23.20
2019-04-29T02:14:13.716Z,23.20
2019-04-29T02:16:44.533Z,23.20
2019-04-29T02:19:15.199Z,23.20
2019-04-29T02:21:47.313Z,23.20
2019-04-29T02:24:19.128Z,23.20
2019-04-29T02:26:49.911Z,23.20
2019-04-29T02:29:20.326Z,23.20
2019-04-29T02:31:50.803Z,23.20
2019-04-29T02:34:21.557Z,23.20
2019-04-29T02:36:51.957Z,23.20
2019-04-29T02:39:36.496Z,23.10
2019-04-29T02:42:25.437Z,23.10
2019-04-29T02:44:57.317Z,23.10
2019-04-29T02:47:27.705Z,23.10
2019-04-29T02:49:58.550Z,23.10
2019-04-29T02:52:29.386Z,23.10
2019-04-29T02:55:01.245Z,23.10
2019-04-29T02:57:33.002Z,23.10
2019-04-29T03:00:04.905Z,23.10
2019-04-29T03:02:46.317Z,23.10
2019-04-29T03:05:24.835Z,23.10
2019-04-29T03:07:55.249Z,23.00
2019-04-29T03:10:26.169Z,23.10
2019-04-29T03:12:57.003Z,23.10
2019-04-29T03:15:29.671Z,23.00
2019-04-29T03:18:00.315Z,23.00
2019-04-29T03:20:35.269Z,23.00
2019-04-29T03:23:19.388Z,23.00
2019-04-29T03:25:49.798Z,23.00
2019-04-29T03:28:20.207Z,23.00
2019-04-29T03:30:50.643Z,23.00
2019-04-29T03:33:21.473Z,23.00
2019-04-29T03:35:52.155Z,22.90
2019-04-29T03:38:22.577Z,22.90
2019-04-29T03:40:53.282Z,22.90
2019-04-29T03:43:24.514Z,22.90
2019-04-29T03:45:55.424Z,22.90
2019-04-29T03:48:26.258Z,22.90
2019-04-29T03:50:56.746Z,22.90
2019-04-29T03:53:28.357Z,22.90
2019-04-29T03:55:59.833Z,22.90
2019-04-29T03:58:30.843Z,22.80
2019-04-29T04:01:02.713Z,22.80
2019-04-29T04:03:34.578Z,22.80
2019-04-29T04:06:07.256Z,22.80
2019-04-29T04:08:41.818Z,22.80
2019-04-29T04:11:12.685Z,22.80
2019-04-29T04:13:43.189Z,22.70
2019-04-29T04:16:15.355Z,22.70
2019-04-29T04:18:45.751Z,22.70
2019-04-29T04:21:16.156Z,22.80
2019-04-29T04:23:46.560Z,22.70
2019-04-29T04:26:17.092Z,22.70
2019-04-29T04:28:47.733Z,22.70
2019-04-29T04:31:18.150Z,22.70
2019-04-29T04:33:48.814Z,22.60
2019-04-29T04:36:19.761Z,22.60
2019-04-29T04:38:50.164Z,22.60
2019-04-29T04:41:40.112Z,22.60
2019-04-29T04:44:11.105Z,22.60
2019-04-29T04:46:41.864Z,22.60
2019-04-29T04:49:15.771Z,22.60
2019-04-29T04:51:44.190Z,22.50
2019-04-29T04:54:14.574Z,22.50
2019-04-29T04:56:45.005Z,22.50
2019-04-29T04:59:15.397Z,22.50
2019-04-29T05:01:46.031Z,22.50
2019-04-29T05:04:16.772Z,22.40
2019-04-29T05:06:47.200Z,22.40
2019-04-29T05:09:17.706Z,22.40
2019-04-29T05:11:48.124Z,22.40
2019-04-29T05:14:18.529Z,22.40
2019-04-29T05:16:48.938Z,22.40
2019-04-29T05:19:19.354Z,22.40
2019-04-29T05:21:50.339Z,22.40
2019-04-29T05:24:21.049Z,22.30
2019-04-29T05:26:51.703Z,22.30
2019-04-29T05:29:22.469Z,22.30
2019-04-29T05:31:52.977Z,22.30
2019-04-29T05:34:24.983Z,22.30
2019-04-29T05:37:05.536Z,22.30
2019-04-29T05:39:43.199Z,22.20
2019-04-29T05:42:17.141Z,22.30
2019-04-29T05:44:56.493Z,22.20
2019-04-29T05:47:28.260Z,22.20
2019-04-29T05:50:17.237Z,22.20
2019-04-29T05:52:53.208Z,22.20
2019-04-29T05:55:23.863Z,22.10
2019-04-29T05:58:02.935Z,22.10
2019-04-29T06:00:27.510Z,22.10
2019-04-29T06:02:57.905Z,22.10
2019-04-29T06:05:28.682Z,22.10
2019-04-29T06:08:01.178Z,22.10
2019-04-29T06:10:31.636Z,22.10
2019-04-29T06:13:02.022Z,22.10
2019-04-29T06:15:32.822Z,22.00
2019-04-29T06:18:03.770Z,22.00
2019-04-29T06:20:34.515Z,22.00
2019-04-29T06:23:04.926Z,22.00
2019-04-29T06:25:35.315Z,22.00
2019-04-29T06:28:06.065Z,22.00
2019-04-29T06:30:38.741Z,21.90
2019-04-29T06:33:08.724Z,21.90
2019-04-29T06:35:39.170Z,21.90
2019-04-29T06:38:09.910Z,21.90
2019-04-29T06:40:40.311Z,21.90
2019-04-29T06:43:11.045Z,21.90
2019-04-29T06:45:41.707Z,21.80
2019-04-29T06:48:12.146Z,21.80
2019-04-29T06:50:42.853Z,21.80
2019-04-29T06:53:16.511Z,21.80
2019-04-29T06:55:45.150Z,21.80
2019-04-29T06:58:15.858Z,21.80
2019-04-29T07:00:46.527Z,21.80
2019-04-29T07:03:21.021Z,21.70
2019-04-29T07:05:51.467Z,21.70
2019-04-29T07:08:21.305Z,21.70
2019-04-29T07:10:55.734Z,21.70
2019-04-29T07:13:24.601Z,21.70
2019-04-29T07:15:55.503Z,21.70
2019-04-29T07:18:25.906Z,21.70
2019-04-29T07:20:56.611Z,21.70
2019-04-29T07:23:27.499Z,21.60
2019-04-29T07:25:58.314Z,21.60
2019-04-29T07:28:29.144Z,21.60
2019-04-29T07:31:01.761Z,21.60
2019-04-29T07:33:31.483Z,21.60
2019-04-29T07:36:10.976Z,21.60
2019-04-29T07:38:41.222Z,21.60
2019-04-29T07:41:05.906Z,21.50
2019-04-29T07:43:38.663Z,21.50
2019-04-29T07:46:10.742Z,21.50
2019-04-29T07:48:42.071Z,21.50
2019-04-29T07:51:13.313Z,21.50
2019-04-29T07:53:45.628Z,21.50
2019-04-29T07:56:16.294Z,21.50
2019-04-29T07:58:48.517Z,21.50
2019-04-29T08:01:19.795Z,21.40
2019-04-29T08:03:51.184Z,21.40
2019-04-29T08:06:21.662Z,21.40
2019-04-29T08:08:55.098Z,21.40
2019-04-29T08:11:24.920Z,21.40
2019-04-29T08:13:56.362Z,21.40
2019-04-29T08:16:26.742Z,21.30
2019-04-29T08:18:57.440Z,21.30
2019-04-29T08:21:28.162Z,21.30
2019-04-29T08:23:58.891Z,21.30
2019-04-29T08:26:29.289Z,21.30
2019-04-29T08:29:00.731Z,21.30
2019-04-29T08:31:31.596Z,21.30
2019-04-29T08:34:02.324Z,21.40
2019-04-29T08:36:32.766Z,21.30
2019-04-29T08:39:08.612Z,21.30
2019-04-29T08:41:35.030Z,21.30
2019-04-29T08:44:19.793Z,21.30
2019-04-29T08:46:52.761Z,21.20
2019-04-29T08:49:23.490Z,21.20
2019-04-29T08:51:53.977Z,21.20
2019-04-29T08:54:24.414Z,21.20
2019-04-29T08:57:03.107Z,21.20
2019-04-29T08:59:27.495Z,21.20
2019-04-29T09:01:58.270Z,21.20
2019-04-29T09:04:33.167Z,21.20
2019-04-29T09:07:11.967Z,21.10
2019-04-29T09:09:32.761Z,21.20
2019-04-29T09:12:03.354Z,21.20
2019-04-29T09:14:34.379Z,21.20
2019-04-29T09:17:13.552Z,21.10
2019-04-29T09:19:39.312Z,21.10
2019-04-29T09:22:10.277Z,21.10
2019-04-29T09:24:43.581Z,21.10
2019-04-29T09:27:15.697Z,21.10
2019-04-29T09:29:46.587Z,21.10
2019-04-29T09:32:17.288Z,21.10
2019-04-29T09:34:47.703Z,21.00
2019-04-29T09:37:18.585Z,21.00
2019-04-29T09:39:50.284Z,21.00
2019-04-29T09:42:25.498Z,21.00
2019-04-29T09:45:00.196Z,21.00
2019-04-29T09:47:31.360Z,21.00
2019-04-29T09:50:01.917Z,21.00
2019-04-29T09:52:32.648Z,21.00
2019-04-29T09:55:03.959Z,21.00
2019-04-29T09:57:35.201Z,20.90
2019-04-29T10:00:12.464Z,20.90
2019-04-29T10:02:44.571Z,20.90
2019-04-29T10:05:32.867Z,20.90
2019-04-29T10:08:03.573Z,20.90
2019-04-29T10:10:36.982Z,20.90
2019-04-29T10:13:06.312Z,20.90
2019-04-29T10:15:38.408Z,20.80
2019-04-29T10:18:13.565Z,20.90
2019-04-29T10:20:54.609Z,20.80
2019-04-29T10:23:25.455Z,20.80
2019-04-29T10:25:56.344Z,20.80
2019-04-29T10:28:27.068Z,20.80
2019-04-29T10:30:57.475Z,20.80
2019-04-29T10:33:28.231Z,20.80
2019-04-29T10:35:59.066Z,20.80
2019-04-29T10:38:29.626Z,20.70
2019-04-29T10:41:08.036Z,20.70
2019-04-29T10:43:56.423Z,20.70
2019-04-29T10:46:44.561Z,20.70
2019-04-29T10:49:34.848Z,20.70
2019-04-29T10:52:05.136Z,20.70
2019-04-29T10:54:35.957Z,20.70
2019-04-29T10:57:10.550Z,20.70
2019-04-29T10:59:40.632Z,20.70
2019-04-29T11:02:31.947Z,20.70
2019-04-29T11:05:07.961Z,20.60
2019-04-29T11:07:40.153Z,20.60
2019-04-29T11:10:28.767Z,20.60
2019-04-29T11:12:59.585Z,20.60
2019-04-29T11:15:32.719Z,20.60
2019-04-29T11:18:03.936Z,20.60
2019-04-29T11:20:34.901Z,20.60
2019-04-29T11:23:18.194Z,20.60
2019-04-29T11:26:06.100Z,20.50
2019-04-29T11:28:37.327Z,20.50
2019-04-29T11:31:09.771Z,20.50
2019-04-29T11:33:41.782Z,20.50
2019-04-29T11:36:13.586Z,20.50
2019-04-29T11:38:44.127Z,20.50
2019-04-29T11:41:19.772Z,20.50
2019-04-29T11:43:50.864Z,20.40
2019-04-29T11:46:21.006Z,20.40
2019-04-29T11:48:52.485Z,20.40
2019-04-29T11:51:25.002Z,20.40
2019-04-29T11:53:56.033Z,20.40
2019-04-29T11:56:26.428Z,20.40
2019-04-29T11:59:03.907Z,20.40
2019-04-29T12:01:38.768Z,20.40
2019-04-29T12:04:28.659Z,20.30
2019-04-29T12:06:58.367Z,20.30
2019-04-29T12:09:30.475Z,20.30
2019-04-29T12:12:01.256Z,20.30
2019-04-29T12:14:49.297Z,20.30
2019-04-29T12:17:33.548Z,20.30
2019-04-29T12:20:05.393Z,20.30
2019-04-29T12:22:47.821Z,20.30
2019-04-29T12:25:08.993Z,20.20
2019-04-29T12:27:39.502Z,20.20
2019-04-29T12:30:11.570Z,20.20
2019-04-29T12:33:01.321Z,20.20
2019-04-29T12:35:32.377Z,20.20
2019-04-29T12:38:05.916Z,20.20
2019-04-29T12:40:55.174Z,20.20
2019-04-29T12:43:48.597Z,20.20
2019-04-29T12:46:21.674Z,20.10
2019-04-29T12:48:52.441Z,20.10
2019-04-29T12:51:23.649Z,20.10
2019-04-29T12:53:54.518Z,20.10
2019-04-29T12:56:38.472Z,20.10
2019-04-29T12:59:08.844Z,20.10
2019-04-29T13:01:58.748Z,20.10
2019-04-29T13:04:45.117Z,20.00
2019-04-29T13:07:24.983Z,20.00
2019-04-29T13:10:07.021Z,20.00
2019-04-29T13:12:34.663Z,20.00
2019-04-29T13:15:13.877Z,20.00
2019-04-29T13:18:03.252Z,20.00
2019-04-29T13:20:27.047Z,20.00
2019-04-29T13:23:00.568Z,19.90
2019-04-29T13:25:29.493Z,19.90
2019-04-29T13:28:03.857Z,19.90
2019-04-29T13:30:32.411Z,19.90
2019-04-29T13:33:05.915Z,19.90
2019-04-29T13:35:35.503Z,19.80
2019-04-29T13:38:06.105Z,19.90
2019-04-29T13:40:38.926Z,19.90
2019-04-29T13:43:09.300Z,19.80
2019-04-29T13:45:50.288Z,19.80
2019-04-29T13:48:22.042Z,19.80
2019-04-29T13:50:56.896Z,19.80
2019-04-29T13:53:27.665Z,19.80
2019-04-29T13:56:11.226Z,19.80
2019-04-29T13:58:30.622Z,19.80
2019-04-29T14:01:23.953Z,19.70
2019-04-29T14:03:59.085Z,19.70
2019-04-29T14:06:30.071Z,19.70
2019-04-29T14:09:03.918Z,19.70
2019-04-29T14:11:33.026Z,19.70
2019-04-29T14:14:03.743Z,19.70
2019-04-29T14:16:34.283Z,19.70
2019-04-29T14:19:08.385Z,19.70
2019-04-29T14:21:37.289Z,19.70
2019-04-29T14:24:08.142Z,19.70
2019-04-29T14:26:42.021Z,19.70
2019-04-29T14:29:10.362Z,19.60
2019-04-29T14:31:40.790Z,19.60
2019-04-29T14:34:19.860Z,19.60
2019-04-29T14:36:47.545Z,19.60
2019-04-29T14:39:36.139Z,19.60
2019-04-29T14:41:55.325Z,19.60
2019-04-29T14:44:39.371Z,19.60
2019-04-29T14:47:27.278Z,19.60
2019-04-29T14:50:01.817Z,19.60
2019-04-29T14:52:33.510Z,19.60
2019-04-29T14:55:03.953Z,19.60
2019-04-29T14:57:34.716Z,19.60
2019-04-29T15:00:07.756Z,19.60
2019-04-29T15:02:38.222Z,19.60
2019-04-29T15:05:12.307Z,19.60
2019-04-29T15:07:40.861Z,19.70
2019-04-29T15:10:12.479Z,19.70
2019-04-29T15:13:01.572Z,19.80
2019-04-29T15:15:34.053Z,19.80
2019-04-29T15:18:15.999Z,19.80
2019-04-29T15:20:42.436Z,19.90
2019-04-29T15:23:12.881Z,19.90
2019-04-29T15:25:43.331Z,20.00
2019-04-29T15:28:13.726Z,20.00
2019-04-29T15:30:45.530Z,20.00
2019-04-29T15:33:15.897Z,20.10
2019-04-29T15:35:46.511Z,20.10
2019-04-29T15:38:16.946Z,20.10
2019-04-29T15:40:47.655Z,20.20
2019-04-29T15:43:22.614Z,20.20
2019-04-29T15:45:50.192Z,20.30
2019-04-29T15:48:20.698Z,20.30
2019-04-29T15:50:51.095Z,20.30
2019-04-29T15:53:23.339Z,20.40
2019-04-29T15:56:06.221Z,20.40
2019-04-29T15:58:27.703Z,20.50
2019-04-29T16:01:12.935Z,20.50
2019-04-29T16:03:31.735Z,20.60
2019-04-29T16:06:21.059Z,20.60
2019-04-29T16:08:59.100Z,20.60
2019-04-29T16:11:36.855Z,20.70
2019-04-29T16:14:10.051Z,20.70
2019-04-29T16:16:40.861Z,20.80
2019-04-29T16:19:11.263Z,20.90
2019-04-29T16:21:42.967Z,20.90
2019-04-29T16:24:25.999Z,21.00
2019-04-29T16:26:45.294Z,21.00
2019-04-29T16:29:15.847Z,21.00
2019-04-29T16:31:46.246Z,21.10
2019-04-29T16:34:16.682Z,21.20
2019-04-29T16:36:50.081Z,21.20
2019-04-29T16:39:19.003Z,21.30
2019-04-29T16:41:58.231Z,21.30
2019-04-29T16:44:35.669Z,21.30
2019-04-29T16:46:56.066Z,21.40
2019-04-29T16:49:26.530Z,21.40
2019-04-29T16:51:57.053Z,21.50
2019-04-29T16:54:28.934Z,21.50
2019-04-29T16:56:59.394Z,21.50
2019-04-29T16:59:31.423Z,21.60
2019-04-29T17:02:02.044Z,21.60
2019-04-29T17:04:33.424Z,21.70
2019-04-29T17:07:12.492Z,21.70
2019-04-29T17:09:45.821Z,21.80
2019-04-29T17:12:16.311Z,21.80
2019-04-29T17:15:03.138Z,21.90
2019-04-29T17:17:28.601Z,21.90
2019-04-29T17:19:52.992Z,21.90
2019-04-29T17:22:26.927Z,21.90
2019-04-29T17:24:56.775Z,22.00
2019-04-29T17:27:46.329Z,22.00
2019-04-29T17:30:38.402Z,22.10
2019-04-29T17:33:26.324Z,22.10
2019-04-29T17:35:49.673Z,22.10
2019-04-29T17:38:20.052Z,22.10
2019-04-29T17:40:51.102Z,22.20
2019-04-29T17:46:02.344Z,22.20
2019-04-29T17:48:37.080Z,22.30
2019-04-29T17:51:09.428Z,22.30
2019-04-29T17:53:55.061Z,22.40
2019-04-29T17:56:35.710Z,22.40
2019-04-29T17:59:10.776Z,22.50
2019-04-29T18:01:48.621Z,22.50
2019-04-29T18:04:29.452Z,22.60
2019-04-29T18:07:10.500Z,22.60
2019-04-29T18:09:36.516Z,22.60
2019-04-29T18:12:08.311Z,22.70
2019-04-29T18:14:41.793Z,22.70
2019-04-29T18:17:12.722Z,22.80
2019-04-29T18:19:47.382Z,22.80
2019-04-29T18:22:34.954Z,22.90
2019-04-29T18:25:30.856Z,22.90
2019-04-29T18:28:00.004Z,23.00
2019-04-29T18:30:35.751Z,23.00
2019-04-29T18:33:00.722Z,23.10
2019-04-29T18:35:31.224Z,23.10
2019-04-29T18:38:01.660Z,23.10
2019-04-29T18:40:35.468Z,23.20
2019-04-29T18:43:04.987Z,23.20
2019-04-29T18:45:36.901Z,23.10
2019-04-29T18:48:08.577Z,23.00
2019-04-29T18:50:39.594Z,22.80
2019-04-29T18:53:10.040Z,22.70
2019-04-29T18:55:40.551Z,22.60
2019-04-29T18:58:10.988Z,22.50
2019-04-29T19:00:46.123Z,22.40
2019-04-29T19:03:17.279Z,22.40
2019-04-29T19:05:52.012Z,22.30
2019-04-29T19:08:23.520Z,22.20
2019-04-29T19:10:54.397Z,22.10
2019-04-29T19:13:26.035Z,22.00
2019-04-29T19:16:09.071Z,21.90
2019-04-29T19:18:29.954Z,21.90
2019-04-29T19:21:00.338Z,22.00
2019-04-29T19:23:30.932Z,22.10
2019-04-29T19:26:02.029Z,22.20
2019-04-29T19:28:34.684Z,22.20
2019-04-29T19:31:09.451Z,22.20
2019-04-29T19:33:39.337Z,22.10
2019-04-29T19:36:17.148Z,22.10
2019-04-29T19:38:43.338Z,22.20
2019-04-29T19:41:16.290Z,22.20
2019-04-29T19:43:48.391Z,22.10
2019-04-29T19:46:24.164Z,22.10
2019-04-29T19:48:50.659Z,22.10
2019-04-29T19:51:22.925Z,22.20
2019-04-29T19:53:53.020Z,22.20
2019-04-29T19:56:26.985Z,22.10
2019-04-29T19:58:57.983Z,22.00
2019-04-29T20:01:32.282Z,21.90
2019-04-29T20:04:15.848Z,22.00
2019-04-29T20:06:42.925Z,22.20
2019-04-29T20:09:18.146Z,22.20
2019-04-29T20:11:46.127Z,22.10
2019-04-29T20:14:26.667Z,22.00
2019-04-29T20:17:12.622Z,22.10
2019-04-29T20:19:55.284Z,22.30
2019-04-29T20:22:22.581Z,22.20
2019-04-29T20:24:55.655Z,22.10
2019-04-29T20:27:30.812Z,22.10
2019-04-29T20:29:58.464Z,22.10
2019-04-29T20:32:31.874Z,22.20
2019-04-29T20:35:06.854Z,22.20
2019-04-29T20:37:32.930Z,22.20
2019-04-29T20:40:05.581Z,22.10
2019-04-29T20:42:35.825Z,22.10
2019-04-29T20:45:08.746Z,22.20
2019-04-29T20:47:41.993Z,22.30
2019-04-29T20:50:13.681Z,22.20
2019-04-29T20:52:44.989Z,22.20
2019-04-29T20:55:16.066Z,22.20
2019-04-29T20:57:47.848Z,22.30
2019-04-29T21:00:20.230Z,22.30
2019-04-29T21:02:51.696Z,22.30
2019-04-29T21:05:24.631Z,22.20
2019-04-29T21:08:03.066Z,22.10
2019-04-29T21:10:27.650Z,22.20
2019-04-29T21:13:20.337Z,22.30
2019-04-29T21:15:52.510Z,22.20
2019-04-29T21:18:22.778Z,22.20
2019-04-29T21:20:59.573Z,22.10
2019-04-29T21:23:31.516Z,22.20
2019-04-29T21:26:00.518Z,22.30
2019-04-29T21:28:38.175Z,22.40
2019-04-29T21:31:05.242Z,22.30
2019-04-29T21:33:35.851Z,22.20
2019-04-29T21:36:26.499Z,22.20
2019-04-29T21:39:06.202Z,22.20
2019-04-29T21:41:55.518Z,22.30
2019-04-29T21:44:27.815Z,22.40
2019-04-29T21:46:59.718Z,22.30
2019-04-29T21:49:42.322Z,22.20
2019-04-29T21:52:02.254Z,22.10
2019-04-29T21:54:32.679Z,22.20
2019-04-29T21:57:03.120Z,22.30
2019-04-29T21:59:35.749Z,22.30
2019-04-29T22:02:06.637Z,22.20
2019-04-29T22:04:38.559Z,22.20
2019-04-29T22:07:10.328Z,22.20
2019-04-29T22:09:44.747Z,22.30
2019-04-29T22:12:14.117Z,22.40
2019-04-29T22:14:52.103Z,22.40
2019-04-29T22:17:16.490Z,22.30
2019-04-29T22:19:47.630Z,22.30
2019-04-29T22:22:18.048Z,22.20
2019-04-29T22:24:51.158Z,22.30
2019-04-29T22:27:20.381Z,22.40
2019-04-29T22:29:51.259Z,22.40
2019-04-29T22:32:21.668Z,22.30
2019-04-29T22:34:54.811Z,22.20
2019-04-29T22:37:25.482Z,22.20
2019-04-29T22:39:58.673Z,22.20
2019-04-29T22:42:32.375Z,22.30
2019-04-29T22:45:02.919Z,22.30
2019-04-29T22:47:33.336Z,22.20
2019-04-29T22:50:04.583Z,22.10
2019-04-29T22:52:36.717Z,22.10
2019-04-29T22:55:08.397Z,22.20
2019-04-29T22:57:38.843Z,22.30
2019-04-29T23:00:09.539Z,22.20
2019-04-29T23:02:43.063Z,22.10
2019-04-29T23:05:13.563Z,22.10
2019-04-29T23:07:45.606Z,22.20
2019-04-29T23:10:19.914Z,22.20
2019-04-29T23:12:49.311Z,22.10
2019-04-29T23:15:23.500Z,22.10
2019-04-29T23:17:52.177Z,22.10
2019-04-29T23:20:29.490Z,22.10
2019-04-29T23:23:11.346Z,22.10
2019-04-29T23:25:43.151Z,21.90
2019-04-29T23:28:13.899Z,21.70
2019-04-29T23:30:47.791Z,21.70
2019-04-29T23:33:22.953Z,21.70
2019-04-29T23:35:49.463Z,21.80
2019-04-29T23:38:20.371Z,21.60
2019-04-29T23:40:54.494Z,21.50
2019-04-29T23:43:25.357Z,21.50
2019-04-29T23:45:59.063Z,21.60
2019-04-29T23:48:38.787Z,21.50
2019-04-29T23:51:00.063Z,21.40
2019-04-29T23:53:30.836Z,21.30
2019-04-29T23:56:05.560Z,21.30
2019-04-29T23:58:46.778Z,21.30
